Time;durP1;ratioP1;P1;durP2;ratioP2;P2;SDS_P1;SDS_P2;PMS_P1;PMS_P2;Temp;Humidity;BMP_temperature;BMP_pressure;BME280_temperature;BME280_humidity;BME280_pressure;Samples;Min_cycle;Max_cycle;Signal;HPM_P1;HPM_P2
2021/07/30 00:02:20;;;;;;;2.38;1.20;;;11.90;99.90;;;;;;5053543;28;20056;-37
2021/07/30 00:04:46;;;;;;;3.47;1.45;;;11.90;99.90;;;;;;5053641;28;20029;-40
2021/07/30 00:07:11;;;;;;;2.50;1.10;;;11.80;99.90;;;;;;5053555;28;20033;-38
2021/07/30 00:09:37;;;;;;;3.22;1.80;;;11.80;99.90;;;;;;5052296;28;20071;-39
2021/07/30 00:12:03;;;;;;;6.03;1.85;;;11.70;99.90;;;;;;5053509;28;20472;-37
2021/07/30 00:14:29;;;;;;;3.40;1.65;;;11.70;99.90;;;;;;5053402;28;20100;-40
2021/07/30 00:16:54;;;;;;;1.30;1.20;;;11.70;99.90;;;;;;5053397;28;20056;-38
2021/07/30 00:19:20;;;;;;;3.50;1.40;;;11.70;99.90;;;;;;5053392;28;20025;-37
2021/07/30 00:21:45;;;;;;;3.17;1.45;;;11.70;99.90;;;;;;5053258;28;20071;-37
2021/07/30 00:24:11;;;;;;;3.10;1.60;;;11.60;99.90;;;;;;5052027;28;20021;-38
2021/07/30 00:26:36;;;;;;;2.53;1.58;;;11.60;99.90;;;;;;5053326;28;20031;-39
2021/07/30 00:29:02;;;;;;;4.55;1.63;;;11.70;99.90;;;;;;5053022;28;20032;-37
2021/07/30 00:31:27;;;;;;;3.10;2.20;;;11.70;99.90;;;;;;5053181;28;20029;-37
2021/07/30 00:33:53;;;;;;;1.30;1.10;;;11.60;99.90;;;;;;5053073;28;20060;-37
2021/07/30 00:36:18;;;;;;;1.60;1.50;;;11.60;99.90;;;;;;5053098;28;20025;-38
2021/07/30 00:38:43;;;;;;;4.75;2.05;;;11.50;99.90;;;;;;5051778;28;20558;-37
2021/07/30 00:41:10;;;;;;;3.00;1.58;;;11.50;99.90;;;;;;5053012;28;20029;-37
2021/07/30 00:43:35;;;;;;;1.75;1.38;;;11.50;99.90;;;;;;5052941;28;20028;-38
2021/07/30 00:46:01;;;;;;;5.40;2.03;;;11.40;99.90;;;;;;5052925;28;20033;-37
2021/07/30 00:48:31;;;;;;;2.58;1.63;;;11.40;99.90;;;;;;5052909;28;20032;-37
2021/07/30 00:50:58;;;;;;;3.13;1.40;;;11.40;99.90;;;;;;5052883;28;20021;-42
2021/07/30 00:53:24;;;;;;;3.03;1.63;;;11.40;99.90;;;;;;5052126;28;20021;-38
2021/07/30 00:55:50;;;;;;;3.90;1.80;;;11.40;99.90;;;;;;5052597;28;20433;-38
2021/07/30 00:58:16;;;;;;;1.95;1.40;;;11.30;99.90;;;;;;5052697;28;20028;-38
2021/07/30 01:00:42;;;;;;;2.90;1.60;;;11.40;99.90;;;;;;5052867;28;20112;-38
2021/07/30 01:03:09;;;;;;;4.32;2.00;;;11.40;99.90;;;;;;5052558;28;20127;-37
2021/07/30 01:05:35;;;;;;;4.07;1.77;;;11.30;99.90;;;;;;5052795;28;20455;-38
2021/07/30 01:08:02;;;;;;;2.00;1.80;;;11.30;99.90;;;;;;5052529;28;20021;-37
2021/07/30 01:10:27;;;;;;;4.18;1.95;;;11.30;99.90;;;;;;5056319;28;20025;-37
2021/07/30 01:12:54;;;;;;;2.22;1.20;;;11.30;99.90;;;;;;5059203;28;20422;-37
2021/07/30 01:15:19;;;;;;;2.15;1.25;;;11.20;99.90;;;;;;5059297;28;20032;-37
2021/07/30 01:17:45;;;;;;;2.03;1.40;;;11.20;99.90;;;;;;5059278;28;20029;-37
2021/07/30 01:20:11;;;;;;;2.40;1.60;;;11.10;99.90;;;;;;5059222;28;20060;-37
2021/07/30 01:22:52;;;;;;;2.30;1.65;;;11.10;99.90;;;;;;5059234;28;20028;-37
2021/07/30 01:25:18;;;;;;;3.33;1.80;;;11.00;99.90;;;;;;5057974;28;20024;-37
2021/07/30 01:27:44;;;;;;;4.30;2.00;;;11.00;99.90;;;;;;5059357;28;20376;-37
2021/07/30 01:30:11;;;;;;;3.50;1.70;;;11.00;99.90;;;;;;5059158;28;20032;-37
2021/07/30 01:32:36;;;;;;;1.70;1.23;;;10.90;99.90;;;;;;5059253;28;20484;-40
2021/07/30 01:35:03;;;;;;;4.78;1.65;;;10.90;99.90;;;;;;5059088;28;20036;-40
2021/07/30 01:37:28;;;;;;;4.47;1.85;;;10.90;99.90;;;;;;5059158;28;20021;-37
2021/07/30 01:39:54;;;;;;;4.50;1.98;;;10.80;99.90;;;;;;5057722;28;20048;-37
2021/07/30 01:42:19;;;;;;;4.72;1.80;;;10.80;99.90;;;;;;5059082;28;20037;-37
2021/07/30 01:44:45;;;;;;;1.65;1.50;;;10.80;99.90;;;;;;5059046;28;20020;-39
2021/07/30 01:47:10;;;;;;;3.72;1.85;;;10.80;99.90;;;;;;5058955;28;20143;-38
2021/07/30 01:49:36;;;;;;;1.58;1.45;;;10.80;99.90;;;;;;5059081;28;20040;-38
2021/07/30 01:52:02;;;;;;;3.78;1.83;;;10.80;99.90;;;;;;5059027;28;20027;-37
2021/07/30 01:54:27;;;;;;;3.08;1.70;;;10.70;99.90;;;;;;5057587;28;20071;-38
2021/07/30 01:56:53;;;;;;;4.32;1.63;;;10.70;99.90;;;;;;5058945;28;20033;-39
2021/07/30 01:59:18;;;;;;;1.75;1.65;;;10.70;99.90;;;;;;5058961;28;20075;-39
2021/07/30 02:01:44;;;;;;;2.58;1.77;;;10.70;99.90;;;;;;5058781;28;20025;-37
2021/07/30 02:04:09;;;;;;;3.55;1.60;;;10.70;99.90;;;;;;5058882;28;20443;-37
2021/07/30 02:06:35;;;;;;;2.78;1.90;;;10.70;99.90;;;;;;5058944;28;20036;-38
2021/07/30 02:09:00;;;;;;;9.20;2.08;;;10.60;99.90;;;;;;5057469;28;20112;-37
2021/07/30 02:11:26;;;;;;;1.98;1.73;;;10.60;99.90;;;;;;5058712;28;20025;-37
2021/07/30 02:16:35;;;;;;;2.97;1.88;;;10.60;99.90;;;;;;5059038;28;20031;-39
2021/07/30 02:19:01;;;;;;;6.68;2.00;;;10.50;99.90;;;;;;5058680;28;20103;-39
2021/07/30 02:21:26;;;;;;;6.00;2.20;;;10.50;99.90;;;;;;5056313;28;20504;-39
2021/07/30 02:23:52;;;;;;;2.42;1.75;;;10.50;99.90;;;;;;5054194;28;20384;-38
2021/07/30 02:26:17;;;;;;;5.53;1.80;;;10.40;99.90;;;;;;5055538;28;20468;-37
2021/07/30 02:28:43;;;;;;;3.95;1.90;;;10.40;99.90;;;;;;5055365;28;20025;-37
2021/07/30 02:31:08;;;;;;;3.50;1.90;;;10.40;99.90;;;;;;5055408;28;20029;-37
2021/07/30 02:33:34;;;;;;;2.75;2.10;;;10.40;99.90;;;;;;5055426;28;20096;-39
2021/07/30 02:35:59;;;;;;;3.58;2.10;;;10.40;99.90;;;;;;5055294;28;20488;-37
2021/07/30 02:38:25;;;;;;;3.50;1.70;;;10.40;99.90;;;;;;5053817;28;20040;-38
2021/07/30 02:40:50;;;;;;;2.88;1.90;;;10.40;99.90;;;;;;5055253;28;20029;-37
2021/07/30 02:43:16;;;;;;;5.50;2.08;;;10.40;99.90;;;;;;5055200;28;20025;-37
2021/07/30 02:45:41;;;;;;;5.20;2.00;;;10.40;99.90;;;;;;5055172;28;20096;-37
2021/07/30 02:48:07;;;;;;;2.55;1.58;;;10.40;99.90;;;;;;5054975;28;20040;-37
2021/07/30 02:50:32;;;;;;;4.30;1.90;;;10.30;99.90;;;;;;5055048;28;20075;-38
2021/07/30 02:52:58;;;;;;;4.55;2.20;;;10.30;99.90;;;;;;5054898;28;20079;-37
2021/07/30 02:55:23;;;;;;;3.58;2.25;;;10.30;99.90;;;;;;5053625;28;20037;-37
2021/07/30 02:57:49;;;;;;;3.83;2.20;;;10.30;99.90;;;;;;5054936;28;20108;-37
2021/07/30 03:00:14;;;;;;;5.60;2.25;;;10.30;99.90;;;;;;5054907;28;20376;-37
2021/07/30 03:02:40;;;;;;;4.22;1.95;;;10.30;99.90;;;;;;5054683;28;20117;-37
2021/07/30 03:05:06;;;;;;;3.20;2.17;;;10.30;99.90;;;;;;5054830;28;20037;-37
2021/07/30 03:07:32;;;;;;;4.03;2.10;;;10.30;99.90;;;;;;5054625;28;20029;-38
2021/07/30 03:09:58;;;;;;;2.10;1.70;;;10.30;99.90;;;;;;5053507;28;20036;-39
2021/07/30 03:12:23;;;;;;;5.60;2.20;;;10.40;99.90;;;;;;5054668;28;20472;-37
2021/07/30 03:14:49;;;;;;;3.80;1.85;;;10.40;99.90;;;;;;5054673;28;20044;-38
2021/07/30 03:17:14;;;;;;;4.65;2.50;;;10.50;99.90;;;;;;5054595;28;20032;-39
2021/07/30 03:19:40;;;;;;;5.43;2.35;;;10.60;99.90;;;;;;5054581;28;20075;-37
2021/07/30 03:22:05;;;;;;;3.03;2.28;;;10.60;99.90;;;;;;5054364;28;20029;-40
2021/07/30 03:24:31;;;;;;;4.97;3.05;;;10.70;99.90;;;;;;5053321;28;20033;-37
2021/07/30 03:26:56;;;;;;;5.93;2.55;;;10.80;99.90;;;;;;5054309;28;20037;-37
2021/07/30 03:29:22;;;;;;;2.08;1.88;;;10.90;99.90;;;;;;5054353;28;20029;-37
2021/07/30 03:31:48;;;;;;;3.92;1.80;;;11.00;99.90;;;;;;5054344;28;20388;-40
2021/07/30 03:34:17;;;;;;;4.07;2.20;;;11.00;99.90;;;;;;5053019;28;20039;-38
2021/07/30 03:36:43;;;;;;;4.20;2.33;;;11.00;99.90;;;;;;5054123;28;20032;-38
2021/07/30 03:39:10;;;;;;;2.42;1.80;;;11.10;99.90;;;;;;5052870;28;20029;-39
2021/07/30 03:41:36;;;;;;;7.25;2.53;;;11.20;99.90;;;;;;5054201;28;20082;-39
2021/07/30 03:44:02;;;;;;;3.17;1.95;;;11.30;99.90;;;;;;5054063;28;20028;-38
2021/07/30 03:46:27;;;;;;;3.33;1.70;;;11.50;99.90;;;;;;5054032;28;20041;-39
2021/07/30 03:48:53;;;;;;;2.30;1.75;;;11.60;99.90;;;;;;5053907;28;20068;-38
2021/07/30 03:51:18;;;;;;;2.47;1.70;;;11.70;99.90;;;;;;5054005;28;20120;-39
2021/07/30 03:53:44;;;;;;;4.10;1.80;;;11.90;99.90;;;;;;5052678;28;20484;-39
2021/07/30 03:56:13;;;;;;;5.30;1.77;;;12.00;99.90;;;;;;5053782;28;20033;-37
2021/07/30 03:58:40;;;;;;;1.77;1.65;;;12.10;99.90;;;;;;5053882;28;20072;-37
2021/07/30 04:01:08;;;;;;;5.35;1.92;;;12.30;99.90;;;;;;5053690;28;20032;-39
2021/07/30 04:03:33;;;;;;;3.53;2.10;;;12.30;99.90;;;;;;5053521;28;20049;-39
2021/07/30 04:06:03;;;;;;;1.83;1.60;;;12.40;99.90;;;;;;5053518;28;20024;-37
2021/07/30 04:08:29;;;;;;;2.35;1.92;;;12.50;99.90;;;;;;5052213;28;20486;-37
2021/07/30 04:10:54;;;;;;;3.83;1.77;;;12.60;99.90;;;;;;5053603;28;20025;-39
2021/07/30 04:13:20;;;;;;;3.00;1.80;;;12.60;99.90;;;;;;5053443;28;20040;-38
2021/07/30 04:15:46;;;;;;;3.85;1.65;;;12.70;99.90;;;;;;5053529;28;20052;-38
2021/07/30 04:18:11;;;;;;;3.13;1.65;;;12.90;99.90;;;;;;5053380;28;20079;-40
2021/07/30 04:20:39;;;;;;;2.33;1.73;;;13.00;99.90;;;;;;5053312;28;20380;-37
2021/07/30 04:23:05;;;;;;;2.63;1.40;;;13.10;99.90;;;;;;5053394;28;20079;-39
2021/07/30 04:25:31;;;;;;;2.42;1.95;;;13.30;99.90;;;;;;5052174;28;20036;-37
2021/07/30 04:27:56;;;;;;;2.70;1.60;;;13.50;99.90;;;;;;5053210;28;20040;-38
2021/07/30 04:30:23;;;;;;;3.67;1.63;;;13.70;99.90;;;;;;5053209;28;20129;-37
2021/07/30 04:32:49;;;;;;;5.18;1.65;;;13.90;99.90;;;;;;5053269;28;20032;-37
2021/07/30 04:35:14;;;;;;;4.80;1.83;;;14.60;99.90;;;;;;5053019;28;20456;-39
2021/07/30 04:37:40;;;;;;;2.58;1.70;;;15.10;99.90;;;;;;5053119;28;20036;-39
2021/07/30 04:40:06;;;;;;;3.28;1.70;;;15.80;99.90;;;;;;5051780;28;20036;-38
2021/07/30 04:42:31;;;;;;;3.53;1.90;;;16.90;99.90;;;;;;5053031;28;20046;-37
2021/07/30 04:44:57;;;;;;;1.63;1.40;;;18.00;99.90;;;;;;5052671;28;20411;-44
2021/07/30 04:47:23;;;;;;;2.28;1.63;;;19.20;99.90;;;;;;5052850;28;20103;-40
2021/07/30 04:49:48;;;;;;;3.65;1.65;;;20.20;99.90;;;;;;5052859;28;20048;-38
2021/07/30 04:52:14;;;;;;;3.15;1.83;;;21.00;98.30;;;;;;5052861;28;20029;-40
2021/07/30 04:54:39;;;;;;;6.57;1.88;;;21.60;94.80;;;;;;5051606;28;20112;-41
2021/07/30 04:57:07;;;;;;;2.72;1.50;;;22.40;92.50;;;;;;5052998;28;20409;-38
2021/07/30 04:59:32;;;;;;;2.10;1.73;;;23.00;90.90;;;;;;5052826;28;20023;-38
2021/07/30 05:01:58;;;;;;;4.03;1.70;;;23.60;85.80;;;;;;5052671;28;20029;-42
2021/07/30 05:04:23;;;;;;;2.97;1.23;;;24.20;80.70;;;;;;5052668;28;20029;-39
2021/07/30 05:06:49;;;;;;;1.98;1.77;;;24.70;78.00;;;;;;5052763;28;20422;-38
2021/07/30 05:09:15;;;;;;;2.33;1.70;;;25.30;75.40;;;;;;5051423;28;20052;-38
2021/07/30 05:11:41;;;;;;;5.32;1.70;;;25.70;71.40;;;;;;5052711;28;20491;-40
2021/07/30 05:14:06;;;;;;;1.88;1.65;;;26.30;69.40;;;;;;5052720;28;20044;-40
2021/07/30 05:16:32;;;;;;;2.17;1.83;;;26.70;66.40;;;;;;5052684;28;20103;-40
2021/07/30 05:18:57;;;;;;;2.10;1.60;;;27.10;63.70;;;;;;5052557;28;20357;-40
2021/07/30 05:21:23;;;;;;;7.13;1.92;;;27.50;61.10;;;;;;5052553;28;20418;-39
2021/07/30 05:23:48;;;;;;;4.03;1.67;;;28.00;59.40;;;;;;5051274;28;20029;-40
2021/07/30 05:26:14;;;;;;;3.03;1.52;;;28.30;57.10;;;;;;5052623;28;20039;-39
2021/07/30 05:28:39;;;;;;;3.75;1.75;;;28.70;55.50;;;;;;5052476;28;20407;-40
2021/07/30 05:31:05;;;;;;;2.28;1.38;;;28.80;53.20;;;;;;5052560;28;20031;-40
2021/07/30 05:33:31;;;;;;;1.60;1.42;;;29.00;50.90;;;;;;5052460;28;20043;-39
2021/07/30 05:35:57;;;;;;;2.75;1.40;;;29.20;49.20;;;;;;5052559;28;20563;-41
2021/07/30 05:38:23;;;;;;;2.83;1.45;;;29.80;48.20;;;;;;5051046;28;20472;-39
2021/07/30 05:40:49;;;;;;;7.88;1.67;;;30.00;46.20;;;;;;5052456;28;20496;-39
2021/07/30 05:43:15;;;;;;;4.50;1.50;;;30.50;45.00;;;;;;5052459;28;20147;-38
2021/07/30 05:45:41;;;;;;;4.97;1.90;;;30.70;43.50;;;;;;5052347;28;20369;-39
2021/07/30 05:48:07;;;;;;;2.25;1.50;;;31.20;42.50;;;;;;5052244;28;20060;-42
2021/07/30 05:50:33;;;;;;;3.25;1.60;;;31.50;41.00;;;;;;5052250;28;20021;-39
2021/07/30 05:52:58;;;;;;;4.40;1.92;;;32.00;39.30;;;;;;5052264;28;20028;-40
2021/07/30 05:55:24;;;;;;;2.42;1.70;;;32.20;36.80;;;;;;5050972;28;20356;-42
2021/07/30 05:57:49;;;;;;;3.22;1.92;;;32.50;36.30;;;;;;5055544;28;20033;-45
2021/07/30 06:00:15;;;;;;;2.13;1.65;;;32.60;34.50;;;;;;5056098;28;20036;-39
2021/07/30 06:02:40;;;;;;;2.50;1.30;;;32.80;34.30;;;;;;5055809;28;20048;-41
2021/07/30 06:05:07;;;;;;;2.00;1.50;;;33.00;33.50;;;;;;5055982;28;20100;-41
2021/07/30 06:07:32;;;;;;;2.20;1.60;;;33.20;32.90;;;;;;5055835;28;20033;-39
2021/07/30 06:09:58;;;;;;;4.25;1.50;;;33.40;31.30;;;;;;5054661;28;20036;-43
2021/07/30 06:12:23;;;;;;;5.65;1.60;;;33.40;30.90;;;;;;5055792;28;20112;-39
2021/07/30 06:14:49;;;;;;;2.47;1.40;;;33.80;30.40;;;;;;5055829;28;20119;-41
2021/07/30 06:17:14;;;;;;;5.50;2.00;;;34.20;29.80;;;;;;5055728;28;20041;-39
2021/07/30 06:19:40;;;;;;;2.92;1.50;;;34.00;28.70;;;;;;5055677;28;20033;-39
2021/07/30 06:22:05;;;;;;;2.15;1.33;;;34.20;28.30;;;;;;5055695;28;20025;-39
2021/07/30 06:24:31;;;;;;;2.03;1.42;;;34.50;28.00;;;;;;5054316;28;20029;-40
2021/07/30 06:26:56;;;;;;;2.92;1.38;;;34.50;27.70;;;;;;5055495;28;20025;-41
2021/07/30 06:29:22;;;;;;;4.80;1.70;;;34.80;27.10;;;;;;5055534;28;20124;-39
2021/07/30 06:31:47;;;;;;;2.58;1.35;;;35.00;26.30;;;;;;5055542;28;20033;-39
2021/07/30 06:34:13;;;;;;;2.10;1.10;;;35.30;26.20;;;;;;5055337;28;20079;-40
2021/07/30 06:36:39;;;;;;;2.25;1.48;;;35.60;25.90;;;;;;5055363;28;20021;-39
2021/07/30 06:39:05;;;;;;;6.20;1.95;;;35.60;25.40;;;;;;5054080;28;20599;-41
2021/07/30 06:41:31;;;;;;;3.00;1.40;;;35.70;25.10;;;;;;5055270;28;20032;-39
2021/07/30 06:43:56;;;;;;;3.10;1.30;;;36.10;25.00;;;;;;5055275;28;20495;-43
2021/07/30 06:46:22;;;;;;;2.35;1.60;;;36.40;24.70;;;;;;5055228;28;20104;-41
2021/07/30 06:48:47;;;;;;;3.35;1.65;;;36.30;23.90;;;;;;5055032;28;20365;-41
2021/07/30 06:51:14;;;;;;;3.22;1.50;;;36.60;23.70;;;;;;5055140;28;20503;-39
2021/07/30 06:53:40;;;;;;;4.35;1.38;;;36.90;23.40;;;;;;5053790;28;20032;-41
2021/07/30 06:56:13;;;;;;;3.08;1.63;;;37.00;23.10;;;;;;5055044;28;20021;-42
2021/07/30 06:58:39;;;;;;;4.32;1.95;;;37.20;21.70;;;;;;5054951;28;20074;-39
2021/07/30 07:01:06;;;;;;;4.63;2.15;;;37.10;21.80;;;;;;5055089;28;20499;-41
2021/07/30 07:03:32;;;;;;;3.35;1.80;;;37.10;21.90;;;;;;5054652;28;20427;-39
2021/07/30 07:05:57;;;;;;;2.38;1.48;;;37.00;21.80;;;;;;5054778;28;20028;-39
2021/07/30 07:08:23;;;;;;;3.40;1.70;;;37.40;21.70;;;;;;5053109;28;20380;-40
2021/07/30 07:10:48;;;;;;;1.55;1.40;;;37.70;21.40;;;;;;5054798;28;20031;-40
2021/07/30 07:13:16;;;;;;;2.15;1.40;;;37.90;21.20;;;;;;5054761;28;20033;-42
2021/07/30 07:15:44;;;;;;;4.78;1.70;;;38.40;21.00;;;;;;5054599;28;20032;-41
2021/07/30 07:18:11;;;;;;;3.38;1.50;;;38.40;20.60;;;;;;5054590;28;20468;-41
2021/07/30 07:20:36;;;;;;;5.65;1.90;;;38.30;20.40;;;;;;5054481;28;20032;-42
2021/07/30 07:23:02;;;;;;;3.20;1.60;;;38.30;20.40;;;;;;5054444;28;20540;-39
2021/07/30 07:25:28;;;;;;;6.28;2.50;;;38.40;20.20;;;;;;5053143;28;20033;-41
2021/07/30 07:27:53;;;;;;;6.57;2.15;;;38.30;19.20;;;;;;5054338;28;20090;-41
2021/07/30 07:30:19;;;;;;;3.60;1.83;;;37.70;19.30;;;;;;5054390;28;20467;-40
2021/07/30 07:32:45;;;;;;;2.67;1.50;;;37.70;19.90;;;;;;5054239;28;20036;-40
2021/07/30 07:35:11;;;;;;;2.65;1.63;;;38.00;19.90;;;;;;5054288;28;20036;-39
2021/07/30 07:37:37;;;;;;;6.22;1.77;;;38.50;19.80;;;;;;5054223;28;20383;-39
2021/07/30 07:40:04;;;;;;;5.30;1.85;;;38.70;19.40;;;;;;5052937;28;20093;-41
2021/07/30 07:42:29;;;;;;;3.58;1.83;;;38.70;19.20;;;;;;5054116;28;20021;-44
2021/07/30 07:44:55;;;;;;;3.63;2.00;;;38.80;19.20;;;;;;5054070;28;20384;-42
2021/07/30 07:47:20;;;;;;;3.88;2.00;;;39.00;19.10;;;;;;5053922;28;20108;-40
2021/07/30 07:49:46;;;;;;;4.05;1.85;;;39.30;19.00;;;;;;5053979;28;20106;-40
2021/07/30 07:52:11;;;;;;;3.95;1.48;;;39.30;18.60;;;;;;5054022;28;20028;-41
2021/07/30 07:54:37;;;;;;;3.45;2.00;;;39.30;18.40;;;;;;5052652;28;20025;-40
2021/07/30 07:57:06;;;;;;;3.15;1.90;;;39.50;18.10;;;;;;5053822;28;20107;-39
2021/07/30 07:59:36;;;;;;;3.40;2.10;;;39.30;17.70;;;;;;5053760;28;20067;-40
2021/07/30 08:02:04;;;;;;;4.38;2.10;;;39.10;17.50;;;;;;5053679;28;20031;-42
2021/07/30 08:04:30;;;;;;;4.82;2.10;;;39.20;17.80;;;;;;5053726;28;20029;-40
2021/07/30 08:06:56;;;;;;;3.30;1.77;;;39.30;17.90;;;;;;5053686;28;20104;-40
2021/07/30 08:09:21;;;;;;;3.25;1.80;;;39.40;17.80;;;;;;5052384;28;20107;-42
2021/07/30 08:11:47;;;;;;;4.07;1.85;;;39.60;17.60;;;;;;5053525;28;20079;-40
2021/07/30 08:14:12;;;;;;;2.55;1.70;;;40.00;17.50;;;;;;5053413;28;20025;-40
2021/07/30 08:16:38;;;;;;;3.22;1.88;;;40.20;17.30;;;;;;5053532;28;20540;-40
2021/07/30 08:19:03;;;;;;;4.00;1.90;;;40.30;17.10;;;;;;5052812;28;20087;-41
2021/07/30 08:21:30;;;;;;;6.55;2.25;;;40.00;16.80;;;;;;5053438;28;20108;-40
2021/07/30 08:23:56;;;;;;;3.03;1.70;;;40.20;16.90;;;;;;5052021;28;20472;-40
2021/07/30 08:26:22;;;;;;;3.92;2.13;;;39.70;16.90;;;;;;5053329;28;20029;-39
2021/07/30 08:28:47;;;;;;;3.67;2.13;;;38.90;17.10;;;;;;5053085;28;20481;-41
2021/07/30 08:31:12;;;;;;;5.25;2.08;;;38.10;17.50;;;;;;5053234;28;20508;-39
2021/07/30 08:33:38;;;;;;;3.90;2.08;;;38.00;17.50;;;;;;5053170;28;20096;-40
2021/07/30 08:36:06;;;;;;;5.88;2.03;;;37.70;17.40;;;;;;5053178;28;20025;-39
2021/07/30 08:38:31;;;;;;;3.33;2.03;;;37.50;17.60;;;;;;5051891;28;20044;-42
2021/07/30 08:40:57;;;;;;;3.40;1.70;;;37.00;17.90;;;;;;5053069;28;20036;-41
2021/07/30 08:43:22;;;;;;;3.90;2.17;;;36.50;18.30;;;;;;5052939;28;20020;-41
2021/07/30 08:45:51;;;;;;;9.82;2.90;;;35.70;18.80;;;;;;5052934;28;20040;-39
2021/07/30 08:48:17;;;;;;;3.67;2.20;;;35.40;18.60;;;;;;5052857;28;20468;-39
2021/07/30 08:50:44;;;;;;;4.03;2.13;;;35.00;19.30;;;;;;5052913;28;20025;-39
2021/07/30 08:53:17;;;;;;;4.30;2.05;;;35.00;18.90;;;;;;5052227;28;20055;-41
2021/07/30 08:55:42;;;;;;;4.22;1.85;;;34.10;19.60;;;;;;5052868;28;20025;-40
2021/07/30 08:58:08;;;;;;;2.95;1.80;;;33.60;20.20;;;;;;5052787;28;20032;-41
2021/07/30 09:00:35;;;;;;;4.65;1.80;;;34.70;19.80;;;;;;5052765;28;20021;-40
2021/07/30 09:03:00;;;;;;;2.72;1.67;;;35.90;19.40;;;;;;5052643;28;20059;-42
2021/07/30 09:05:30;;;;;;;3.40;2.15;;;36.60;19.00;;;;;;5052781;28;20112;-41
2021/07/30 09:07:58;;;;;;;5.35;2.00;;;35.90;18.80;;;;;;5052710;28;20511;-40
2021/07/30 09:10:27;;;;;;;2.97;1.60;;;35.50;19.00;;;;;;5051536;28;20427;-41
2021/07/30 09:13:20;;;;;;;3.33;2.30;;;34.70;19.40;;;;;;5052646;28;20028;-42
2021/07/30 09:15:48;;;;;;;4.03;2.00;;;34.80;19.60;;;;;;5052694;28;20028;-45
2021/07/30 09:18:34;;;;;;;3.72;1.90;;;34.60;19.50;;;;;;5052764;28;20108;-41
2021/07/30 09:21:25;;;;;;;3.83;1.95;;;34.30;19.40;;;;;;5052517;28;20017;-39
2021/07/30 09:24:12;;;;;;;4.93;1.90;;;32.80;20.30;;;;;;5051299;28;20534;-41
2021/07/30 09:26:41;;;;;;;3.38;1.88;;;33.10;20.80;;;;;;5052292;28;20433;-41
2021/07/30 09:29:15;;;;;;;2.78;1.98;;;33.00;21.00;;;;;;5052474;28;20029;-39
2021/07/30 09:31:46;;;;;;;5.03;1.85;;;34.00;20.60;;;;;;5055646;28;20088;-39
2021/07/30 09:34:16;;;;;;;3.35;1.77;;;35.20;19.90;;;;;;5056662;28;20479;-42
2021/07/30 09:36:55;;;;;;;3.78;1.77;;;36.00;19.40;;;;;;5056525;28;20052;-39
2021/07/30 09:39:35;;;;;;;2.20;1.70;;;36.70;18.50;;;;;;5055222;28;20306;-40
2021/07/30 09:42:07;;;;;;;4.20;2.10;;;37.10;18.40;;;;;;5056280;28;20020;-39
2021/07/30 09:44:49;;;;;;;6.28;1.77;;;37.30;18.30;;;;;;5056397;28;20043;-40
2021/07/30 09:47:29;;;;;;;5.70;1.92;;;36.90;17.30;;;;;;5056286;28;20036;-41
2021/07/30 09:50:04;;;;;;;7.55;2.25;;;37.10;17.90;;;;;;5056185;28;20033;-39
2021/07/30 09:52:33;;;;;;;3.50;1.95;;;36.80;17.40;;;;;;5056261;28;20021;-39
2021/07/30 09:55:04;;;;;;;3.90;2.20;;;36.50;17.60;;;;;;5054838;28;20029;-39
2021/07/30 09:57:31;;;;;;;2.42;1.73;;;36.10;17.60;;;;;;5056125;28;20060;-39
2021/07/30 09:59:59;;;;;;;4.05;1.77;;;35.80;18.10;;;;;;5054899;28;20115;-41
2021/07/30 10:02:29;;;;;;;2.70;1.80;;;35.40;18.30;;;;;;5055955;28;20129;-39
2021/07/30 10:04:55;;;;;;;3.53;1.70;;;34.70;18.50;;;;;;5055864;28;20360;-42
2021/07/30 10:07:23;;;;;;;3.17;1.58;;;33.70;19.20;;;;;;5055804;28;20047;-39
2021/07/30 10:10:09;;;;;;;4.82;2.15;;;33.10;19.80;;;;;;5054571;28;20017;-40
2021/07/30 10:12:38;;;;;;;5.70;2.03;;;32.30;20.40;;;;;;5055890;28;20444;-39
2021/07/30 10:15:06;;;;;;;4.63;1.85;;;31.40;21.00;;;;;;5055775;28;20116;-39
2021/07/30 10:17:46;;;;;;;4.18;1.90;;;30.60;21.70;;;;;;5055695;28;20051;-41
2021/07/30 10:20:13;;;;;;;3.78;2.25;;;30.10;22.60;;;;;;5055804;28;20025;-41
2021/07/30 10:23:00;;;;;;;4.65;1.90;;;29.60;23.40;;;;;;5055657;28;20033;-39
2021/07/30 10:25:30;;;;;;;5.10;1.95;;;29.20;23.80;;;;;;5054343;28;20141;-39
2021/07/30 10:27:59;;;;;;;5.25;2.10;;;29.00;24.00;;;;;;5055314;28;20017;-38
2021/07/30 10:30:24;;;;;;;4.70;2.08;;;28.90;24.50;;;;;;5055577;28;20032;-38
2021/07/30 10:32:59;;;;;;;5.05;1.90;;;28.80;24.60;;;;;;5055448;28;20025;-38
2021/07/30 10:35:28;;;;;;;3.60;2.10;;;28.60;25.00;;;;;;5055633;28;20109;-40
2021/07/30 10:38:19;;;;;;;4.97;2.03;;;28.40;25.30;;;;;;5055294;28;20032;-39
2021/07/30 10:41:07;;;;;;;5.75;2.05;;;28.30;26.20;;;;;;5055383;28;20021;-38
2021/07/30 10:43:58;;;;;;;2.83;1.85;;;28.20;26.50;;;;;;5054692;28;20033;-39
2021/07/30 10:46:24;;;;;;;3.72;2.20;;;28.20;26.80;;;;;;5055130;28;20056;-39
2021/07/30 10:48:53;;;;;;;4.13;2.15;;;28.40;26.00;;;;;;5055118;28;20052;-39
2021/07/30 10:51:18;;;;;;;2.70;1.92;;;28.50;26.00;;;;;;5055136;28;20029;-41
2021/07/30 10:53:52;;;;;;;3.60;1.85;;;28.40;26.10;;;;;;5053881;28;20024;-39
2021/07/30 10:56:17;;;;;;;5.72;2.00;;;28.40;26.30;;;;;;5055029;28;20491;-41
2021/07/30 10:58:46;;;;;;;6.38;2.50;;;28.50;27.00;;;;;;5055025;28;20033;-39
2021/07/30 11:01:19;;;;;;;2.78;1.60;;;28.50;26.60;;;;;;5054829;28;20036;-39
2021/07/30 11:03:53;;;;;;;3.67;2.00;;;28.50;26.40;;;;;;5054831;28;20099;-39
2021/07/30 11:06:19;;;;;;;6.13;1.80;;;28.60;26.50;;;;;;5054878;28;20532;-39
2021/07/30 11:09:03;;;;;;;3.05;1.95;;;28.50;26.30;;;;;;5053568;28;20025;-39
2021/07/30 11:11:45;;;;;;;7.05;1.90;;;28.40;26.80;;;;;;5054672;28;20024;-38
2021/07/30 11:14:21;;;;;;;5.53;1.85;;;28.30;27.20;;;;;;5054697;28;20067;-43
2021/07/30 11:16:49;;;;;;;3.50;1.70;;;28.10;26.70;;;;;;5054709;28;20021;-38
2021/07/30 11:19:16;;;;;;;3.15;1.52;;;28.00;26.70;;;;;;5054613;28;20025;-38
2021/07/30 11:21:42;;;;;;;9.68;2.38;;;28.00;26.80;;;;;;5054569;28;20079;-39
2021/07/30 11:24:08;;;;;;;5.07;1.90;;;28.00;27.20;;;;;;5053115;28;20028;-39
2021/07/30 11:26:37;;;;;;;4.28;2.25;;;27.90;27.20;;;;;;5054476;28;20121;-38
2021/07/30 11:29:06;;;;;;;4.45;1.85;;;27.70;27.10;;;;;;5054283;28;20032;-41
2021/07/30 11:31:32;;;;;;;5.95;1.95;;;27.70;27.40;;;;;;5054406;28;20025;-40
2021/07/30 11:33:58;;;;;;;6.60;2.35;;;27.80;27.10;;;;;;5054246;28;20071;-38
2021/07/30 11:36:24;;;;;;;6.05;1.83;;;27.80;27.10;;;;;;5054279;28;20028;-38
2021/07/30 11:38:51;;;;;;;5.85;1.88;;;27.60;27.30;;;;;;5052772;28;20037;-41
2021/07/30 11:41:18;;;;;;;4.20;1.73;;;27.60;27.40;;;;;;5054108;28;20037;-40
2021/07/30 11:44:08;;;;;;;4.95;1.67;;;27.40;27.60;;;;;;5054167;28;20032;-39
2021/07/30 11:46:34;;;;;;;4.53;1.85;;;27.30;28.20;;;;;;5054053;28;20024;-38
2021/07/30 11:49:02;;;;;;;4.80;2.00;;;27.00;28.10;;;;;;5053841;28;20032;-38
2021/07/30 11:51:28;;;;;;;3.63;1.58;;;27.00;28.50;;;;;;5053889;28;20025;-39
2021/07/30 11:53:56;;;;;;;2.67;1.77;;;26.80;28.50;;;;;;5051664;28;20095;-41
2021/07/30 11:56:22;;;;;;;5.45;2.30;;;26.80;28.90;;;;;;5054114;28;20025;-42
2021/07/30 11:59:01;;;;;;;4.40;1.65;;;26.60;29.00;;;;;;5053859;28;20108;-41
2021/07/30 12:01:31;;;;;;;3.95;1.73;;;26.50;29.20;;;;;;5053948;28;20037;-38
2021/07/30 12:04:15;;;;;;;3.28;1.40;;;26.50;29.10;;;;;;5053593;28;20436;-39
2021/07/30 12:06:50;;;;;;;2.75;1.83;;;26.50;29.70;;;;;;5053779;28;20029;-39
2021/07/30 12:09:17;;;;;;;6.53;2.03;;;26.60;29.60;;;;;;5052249;28;20021;-38
2021/07/30 12:11:48;;;;;;;4.15;1.80;;;26.50;29.60;;;;;;5053854;28;20263;-39
2021/07/30 12:14:14;;;;;;;3.42;1.65;;;26.50;29.90;;;;;;5053435;28;20151;-41
2021/07/30 12:16:43;;;;;;;3.95;2.03;;;26.50;29.80;;;;;;5053518;28;20060;-39
2021/07/30 12:19:09;;;;;;;2.13;1.55;;;26.60;30.30;;;;;;5053406;28;20523;-40
2021/07/30 12:21:34;;;;;;;4.68;1.98;;;26.60;29.80;;;;;;5053514;28;20036;-39
2021/07/30 12:24:07;;;;;;;4.85;1.88;;;26.70;29.90;;;;;;5052080;28;20037;-39
2021/07/30 12:26:34;;;;;;;3.42;2.03;;;26.80;30.00;;;;;;5052067;28;20037;-38
2021/07/30 12:29:00;;;;;;;3.67;1.65;;;26.80;29.80;;;;;;5053201;28;20116;-39
2021/07/30 12:31:26;;;;;;;3.55;2.05;;;26.70;29.70;;;;;;5053377;28;20379;-38
2021/07/30 12:34:17;;;;;;;3.33;1.60;;;26.70;29.80;;;;;;5053279;28;20099;-38
2021/07/30 12:36:43;;;;;;;3.45;1.63;;;26.60;30.60;;;;;;5053214;28;20029;-40
2021/07/30 12:39:09;;;;;;;3.78;1.83;;;26.80;30.00;;;;;;5051725;28;20413;-39
2021/07/30 12:41:36;;;;;;;6.35;1.85;;;26.90;30.00;;;;;;5053150;28;20365;-38
2021/07/30 12:44:15;;;;;;;6.18;2.35;;;27.00;30.00;;;;;;5052984;28;20567;-38
2021/07/30 12:46:43;;;;;;;4.05;1.80;;;27.00;30.00;;;;;;5053053;28;20032;-41
2021/07/30 12:49:11;;;;;;;3.05;1.70;;;27.10;29.90;;;;;;5052931;28;20109;-38
2021/07/30 12:51:38;;;;;;;7.15;1.85;;;27.10;29.90;;;;;;5052894;28;20036;-39
2021/07/30 12:54:07;;;;;;;4.95;1.80;;;27.20;30.50;;;;;;5051557;28;20021;-39